MET6066 - Amsterdam Schiphol to London Heathrow

Boeing 737-800
G-FLII - Fly UK
0 hrs 45 mins
200 nm
Fly UK Codeshare - Daily

Departure

Departing from
Amsterdam Schiphol (AMS)
Departure gate
Concourse G
Scheduled Departure
GMT 2020
Local 2120
METAR EHAM 191825Z 25009KT 7000 FEW035 07/06 Q1020 NOSIG
TAF TAF EHAM 191655Z 1918/2024 26007KT 8000 FEW012 BKN040 BECMG 1918/1921 23007KT 6000 BECMG 1922/2001 4000 BR BECMG 2002/2005 23013KT 2500 -DZRA SCT004 OVC005 PROB40 2005/2013 1400 DZRA BKN003 BECMG 2011/2014 26017KT PROB40 TEMPO 2014/2019 4000 BR SCT008 BKN
  • No charts available

Arrival

Arriving at
London Heathrow (LHR)
Arrival gate
Terminal 3
Scheduled Arrival
GMT 2105
Local 2105
METAR EGLL 191820Z AUTO 25009KT 9999 OVC017 11/08 Q1022 BECMG BKN012
TAF TAF EGLL 191659Z 1918/2024 25008KT 9999 BKN018 BECMG 1918/1921 BKN005 TEMPO 1918/2012 6000 PROB30 TEMPO 1921/2009 2000 -DZ BR BKN002 BECMG 2009/2012 BKN018 BECMG 2018/2021 BKN010 PROB40 TEMPO 2021/2024 5000 -RADZ BKN006

Route Map

Planning Resources

VALK2E GORLO UL980 XAMAN LOGAN LAM NEKSA
EHAM GORLO REFSO XAMAN LOGAN EGLL
EHAM REFSO LAM EGLL
EHAM VALK1S TAWN3A EGLL
GORLO UL980 LOGAN
Route:
OFP Layout:
Units:
Detailed Navlog:
ETOPS Planning:
Plan Stepclimbs:
Runway Analysis:
Include NOTAMS:
FIR NOTAMS:
Flight Maps:

Return Flights

MET6065 (Operated by Fly UK)
Boeing 737-800
1905 GMT

Popularity

Hub Current Bids PiReps this month Total PiReps
KMCI 0 0 3
KLAX 0 0 3
KBOS 0 0 0